createdAt,value
2018-05-18T00:02:25.132Z,64.72
2018-05-18T00:04:53.489Z,64.82
2018-05-18T00:07:21.825Z,64.98
2018-05-18T00:09:50.172Z,64.94
2018-05-18T00:12:18.509Z,64.80
2018-05-18T00:14:46.873Z,65.00
2018-05-18T00:17:15.210Z,64.99
2018-05-18T00:19:43.561Z,64.88
2018-05-18T00:22:11.892Z,64.59
2018-05-18T00:24:40.244Z,64.85
2018-05-18T00:27:08.572Z,64.94
2018-05-18T00:29:36.927Z,65.09
2018-05-18T00:32:05.258Z,65.24
2018-05-18T00:34:33.603Z,65.47
2018-05-18T00:37:01.941Z,65.46
2018-05-18T00:39:30.302Z,65.66
2018-05-18T00:41:58.637Z,65.55
2018-05-18T00:44:26.993Z,65.86
2018-05-18T00:46:55.333Z,65.65
2018-05-18T00:49:23.684Z,65.80
2018-05-18T00:51:52.008Z,65.90
2018-05-18T00:54:20.364Z,65.71
2018-05-18T00:56:48.701Z,65.84
2018-05-18T00:59:17.048Z,65.92
2018-05-18T01:01:45.391Z,65.49
2018-05-18T01:04:13.748Z,66.26
2018-05-18T01:06:42.076Z,66.04
2018-05-18T01:09:10.439Z,65.64
2018-05-18T01:11:38.764Z,66.33
2018-05-18T01:14:07.119Z,66.56
2018-05-18T01:16:35.449Z,66.57
2018-05-18T01:19:03.804Z,66.57
2018-05-18T01:21:32.140Z,66.64
2018-05-18T01:24:00.497Z,66.55
2018-05-18T01:26:28.832Z,66.24
2018-05-18T01:28:57.188Z,66.22
2018-05-18T01:31:25.528Z,66.50
2018-05-18T01:33:53.880Z,66.37
2018-05-18T01:36:22.217Z,65.74
2018-05-18T01:38:50.563Z,66.13
2018-05-18T01:41:18.895Z,66.54
2018-05-18T01:43:47.265Z,66.63
2018-05-18T01:46:15.592Z,66.38
2018-05-18T01:48:43.924Z,66.36
2018-05-18T01:51:12.281Z,66.27
2018-05-18T01:53:40.620Z,65.64
2018-05-18T01:56:08.968Z,65.92
2018-05-18T01:58:37.301Z,65.98
2018-05-18T02:01:05.656Z,66.08
2018-05-18T02:03:33.989Z,65.75
2018-05-18T02:06:02.690Z,66.19
2018-05-18T02:08:31.004Z,66.02
2018-05-18T02:10:59.349Z,66.43
2018-05-18T02:13:27.680Z,66.34
2018-05-18T02:15:56.032Z,66.35
2018-05-18T02:18:24.364Z,66.14
2018-05-18T02:20:52.716Z,66.60
2018-05-18T02:23:21.049Z,66.75
2018-05-18T02:25:49.404Z,66.57
2018-05-18T02:28:17.736Z,66.40
2018-05-18T02:30:46.096Z,66.47
2018-05-18T02:33:14.435Z,66.61
2018-05-18T02:35:42.793Z,66.89
2018-05-18T02:38:11.124Z,66.96
2018-05-18T02:40:39.476Z,66.97
2018-05-18T02:43:07.815Z,66.67
2018-05-18T02:45:36.157Z,67.06
2018-05-18T02:48:04.495Z,66.75
2018-05-18T02:50:32.848Z,66.72
2018-05-18T02:53:01.180Z,66.64
2018-05-18T02:55:29.530Z,66.87
2018-05-18T02:57:57.861Z,66.38
2018-05-18T03:00:26.211Z,66.46
2018-05-18T03:02:54.594Z,66.76
2018-05-18T03:05:22.937Z,66.91
2018-05-18T03:07:51.260Z,66.99
2018-05-18T03:10:19.617Z,66.62
2018-05-18T03:12:47.961Z,66.87
2018-05-18T03:15:16.313Z,66.42
2018-05-18T03:17:44.650Z,66.68
2018-05-18T03:20:13.001Z,67.01
2018-05-18T03:22:41.341Z,66.68
2018-05-18T03:25:09.694Z,66.63
2018-05-18T03:27:38.029Z,66.81
2018-05-18T03:30:06.380Z,66.48
2018-05-18T03:32:34.714Z,65.69
2018-05-18T03:35:03.068Z,66.31
2018-05-18T03:37:31.400Z,65.79
2018-05-18T03:39:59.753Z,65.95
2018-05-18T03:42:28.087Z,65.83
2018-05-18T03:44:56.457Z,65.91
2018-05-18T03:47:24.794Z,66.04
2018-05-18T03:49:53.124Z,66.21
2018-05-18T03:52:21.485Z,65.83
2018-05-18T03:54:49.813Z,66.26
2018-05-18T03:57:18.163Z,66.40
2018-05-18T03:59:46.492Z,65.80
2018-05-18T04:02:26.751Z,66.15
2018-05-18T04:05:06.881Z,66.14
2018-05-18T04:10:37.652Z,65.87
2018-05-18T04:13:05.984Z,66.14
2018-05-18T04:15:34.336Z,65.74
2018-05-18T04:18:02.671Z,65.93
2018-05-18T04:20:31.024Z,65.97
2018-05-18T04:22:59.360Z,66.41
2018-05-18T04:25:27.720Z,66.57
2018-05-18T04:27:56.048Z,66.43
2018-05-18T04:30:24.469Z,66.41
2018-05-18T04:32:52.736Z,66.31
2018-05-18T04:35:21.092Z,65.80
2018-05-18T04:37:49.421Z,65.82
2018-05-18T04:40:17.743Z,65.72
2018-05-18T04:42:46.101Z,65.63
2018-05-18T04:45:14.434Z,65.69
2018-05-18T04:47:42.777Z,65.77
2018-05-18T04:50:11.108Z,65.46
2018-05-18T04:52:39.458Z,65.37
2018-05-18T04:55:07.792Z,65.29
2018-05-18T04:57:36.147Z,65.17
2018-05-18T05:00:04.472Z,65.01
2018-05-18T05:02:32.816Z,65.26
2018-05-18T05:05:01.144Z,65.18
2018-05-18T05:07:29.500Z,64.53
2018-05-18T05:09:57.837Z,64.72
2018-05-18T05:12:26.197Z,64.62
2018-05-18T05:14:54.524Z,64.91
2018-05-18T05:17:22.877Z,65.53
2018-05-18T05:19:51.205Z,65.03
2018-05-18T05:22:19.560Z,65.23
2018-05-18T05:24:47.888Z,65.38
2018-05-18T05:27:16.245Z,65.37
2018-05-18T05:29:45.435Z,65.10
2018-05-18T05:32:13.789Z,65.09
2018-05-18T05:34:42.113Z,65.27
2018-05-18T05:37:10.464Z,65.21
2018-05-18T05:39:38.793Z,65.54
2018-05-18T05:42:07.149Z,64.95
2018-05-18T05:44:35.481Z,64.57
2018-05-18T05:47:03.835Z,64.63
2018-05-18T05:49:32.166Z,64.70
2018-05-18T05:52:00.516Z,64.34
2018-05-18T05:54:28.844Z,64.65
2018-05-18T05:56:57.193Z,64.55
2018-05-18T05:59:25.558Z,64.71
2018-05-18T06:01:53.868Z,64.76
2018-05-18T06:04:23.298Z,64.49
2018-05-18T06:06:51.647Z,63.63
2018-05-18T06:09:19.992Z,63.60
2018-05-18T06:11:48.342Z,63.64
2018-05-18T06:14:16.668Z,63.81
2018-05-18T06:16:45.025Z,63.91
2018-05-18T06:19:13.500Z,63.82
2018-05-18T06:21:41.836Z,64.18
2018-05-18T06:24:10.168Z,63.95
2018-05-18T06:26:38.520Z,63.82
2018-05-18T06:29:06.848Z,63.86
2018-05-18T06:31:35.200Z,64.10
2018-05-18T06:34:03.533Z,64.17
2018-05-18T06:36:31.889Z,63.59
2018-05-18T06:39:00.235Z,63.88
2018-05-18T06:41:28.573Z,63.47
2018-05-18T06:43:56.916Z,63.84
2018-05-18T06:46:25.249Z,64.10
2018-05-18T06:48:54.140Z,64.08
2018-05-18T06:51:22.476Z,63.98
2018-05-18T06:53:50.824Z,63.85
2018-05-18T06:56:19.156Z,63.25
2018-05-18T06:58:47.555Z,63.46
2018-05-18T07:01:15.912Z,62.81
2018-05-18T07:03:44.268Z,63.18
2018-05-18T07:06:12.704Z,62.52
2018-05-18T07:08:41.249Z,61.94
2018-05-18T07:11:09.656Z,62.55
2018-05-18T07:13:38.299Z,61.54
2018-05-18T07:16:06.656Z,61.81
2018-05-18T07:18:35.013Z,61.30
2018-05-18T07:21:03.340Z,61.39
2018-05-18T07:23:31.759Z,60.31
2018-05-18T07:26:00.011Z,60.20
2018-05-18T07:28:28.425Z,60.11
2018-05-18T07:30:56.752Z,59.96
2018-05-18T07:33:25.104Z,59.71
2018-05-18T07:35:53.434Z,60.20
2018-05-18T07:38:21.780Z,60.09
2018-05-18T07:40:50.116Z,60.27
2018-05-18T07:43:18.467Z,59.33
2018-05-18T07:45:46.800Z,59.83
2018-05-18T07:48:15.156Z,59.78
2018-05-18T07:50:43.484Z,59.54
2018-05-18T07:53:11.835Z,59.80
2018-05-18T07:55:40.177Z,59.72
2018-05-18T07:58:08.529Z,59.06
2018-05-18T08:00:36.852Z,59.00
2018-05-18T08:03:05.201Z,58.41
2018-05-18T08:05:33.540Z,58.70
2018-05-18T08:08:02.859Z,58.64
2018-05-18T08:10:31.193Z,58.15
2018-05-18T08:12:59.544Z,57.88
2018-05-18T08:15:27.871Z,57.46
2018-05-18T08:17:56.224Z,57.47
2018-05-18T08:20:24.587Z,59.73
2018-05-18T08:22:52.905Z,57.39
2018-05-18T08:25:21.233Z,56.59
2018-05-18T08:27:49.667Z,56.55
2018-05-18T08:30:17.996Z,57.09
2018-05-18T08:32:46.344Z,56.71
2018-05-18T08:35:14.680Z,57.10
2018-05-18T08:37:43.040Z,57.54
2018-05-18T08:40:11.367Z,57.94
2018-05-18T08:42:39.697Z,57.04
2018-05-18T08:45:08.044Z,57.15
2018-05-18T08:47:37.336Z,56.93
2018-05-18T08:50:05.714Z,56.83
2018-05-18T08:52:33.976Z,55.59
2018-05-18T08:55:02.336Z,55.81
2018-05-18T08:57:30.660Z,56.02
2018-05-18T08:59:59.012Z,56.03
2018-05-18T09:02:27.341Z,56.39
2018-05-18T09:04:55.694Z,56.13
2018-05-18T09:07:24.096Z,56.25
2018-05-18T09:09:52.449Z,55.58
2018-05-18T09:12:20.773Z,55.36
2018-05-18T09:14:49.137Z,54.79
2018-05-18T09:17:17.464Z,55.26
2018-05-18T09:19:45.812Z,55.43
2018-05-18T09:22:14.140Z,54.46
2018-05-18T09:24:42.492Z,54.39
2018-05-18T09:27:11.849Z,54.95
2018-05-18T09:29:40.200Z,55.04
2018-05-18T09:32:08.538Z,54.11
2018-05-18T09:34:36.897Z,55.17
2018-05-18T09:37:05.226Z,54.19
2018-05-18T09:39:33.579Z,53.83
2018-05-18T09:42:01.917Z,53.99
2018-05-18T09:44:30.273Z,54.32
2018-05-18T09:46:58.644Z,53.92
2018-05-18T09:49:27.001Z,53.63
2018-05-18T09:51:55.337Z,53.36
2018-05-18T09:54:23.871Z,53.69
2018-05-18T09:56:52.101Z,54.05
2018-05-18T09:59:20.449Z,54.36
2018-05-18T10:01:48.781Z,54.15
2018-05-18T10:04:17.143Z,53.69
2018-05-18T10:06:46.376Z,53.71
2018-05-18T10:09:14.727Z,53.44
2018-05-18T10:11:43.062Z,54.23
2018-05-18T10:14:11.408Z,53.87
2018-05-18T10:16:39.746Z,53.54
2018-05-18T10:19:08.100Z,53.09
2018-05-18T10:21:36.432Z,53.19
2018-05-18T10:24:04.781Z,53.10
2018-05-18T10:26:33.937Z,52.41
2018-05-18T10:29:02.293Z,53.26
2018-05-18T10:31:30.612Z,53.10
2018-05-18T10:33:58.968Z,52.70
2018-05-18T10:36:27.293Z,53.00
2018-05-18T10:38:55.640Z,52.47
2018-05-18T10:41:23.972Z,52.37
2018-05-18T10:43:52.336Z,52.66
2018-05-18T10:46:21.540Z,52.55
2018-05-18T10:48:49.881Z,52.43
2018-05-18T10:51:18.223Z,52.33
2018-05-18T10:53:46.561Z,52.67
2018-05-18T10:56:14.908Z,52.27
2018-05-18T10:58:43.236Z,52.10
2018-05-18T11:01:11.630Z,51.27
2018-05-18T11:03:39.957Z,51.75
2018-05-18T11:06:08.535Z,50.92
2018-05-18T11:08:36.918Z,51.73
2018-05-18T11:11:05.301Z,51.97
2018-05-18T11:13:33.635Z,50.83
2018-05-18T11:16:01.985Z,51.35
2018-05-18T11:18:30.396Z,51.64
2018-05-18T11:20:58.698Z,51.22
2018-05-18T11:23:27.032Z,50.93
2018-05-18T11:25:55.380Z,50.08
2018-05-18T11:28:23.708Z,50.29
2018-05-18T11:30:52.056Z,50.59
2018-05-18T11:33:20.385Z,49.87
2018-05-18T11:35:48.732Z,50.11
2018-05-18T11:38:17.069Z,50.15
2018-05-18T11:40:45.416Z,50.80
2018-05-18T11:43:13.765Z,50.39
2018-05-18T11:45:42.113Z,49.57
2018-05-18T11:48:10.484Z,48.73
2018-05-18T11:50:38.801Z,49.79
2018-05-18T11:53:07.136Z,50.77
2018-05-18T11:55:35.489Z,50.24
2018-05-18T11:58:03.817Z,49.08
2018-05-18T12:00:32.172Z,48.55
2018-05-18T12:03:00.496Z,48.84
2018-05-18T12:05:28.853Z,48.91
2018-05-18T12:07:57.185Z,48.14
2018-05-18T12:10:25.540Z,47.78
2018-05-18T12:12:54.680Z,48.29
2018-05-18T12:15:23.038Z,48.45
2018-05-18T12:17:52.482Z,49.37
2018-05-18T12:20:20.878Z,49.59
2018-05-18T12:22:49.158Z,49.16
2018-05-18T12:25:17.509Z,49.71
2018-05-18T12:27:45.832Z,49.42
2018-05-18T12:30:14.226Z,49.58
2018-05-18T12:32:42.512Z,48.01
2018-05-18T12:35:10.869Z,47.72
2018-05-18T12:37:39.198Z,48.43
2018-05-18T12:40:07.825Z,48.81
2018-05-18T12:42:36.538Z,47.76
2018-05-18T12:45:05.331Z,49.17
2018-05-18T12:47:33.941Z,48.89
2018-05-18T12:50:02.548Z,48.49
2018-05-18T12:52:31.210Z,49.27
2018-05-18T12:54:59.829Z,48.80
2018-05-18T12:57:28.534Z,49.11
2018-05-18T12:59:57.179Z,48.83
2018-05-18T13:02:25.799Z,48.33
2018-05-18T13:04:55.344Z,47.91
2018-05-18T13:07:23.973Z,47.20
2018-05-18T13:09:52.543Z,46.57
2018-05-18T13:12:21.232Z,47.85
2018-05-18T13:14:49.864Z,46.48
2018-05-18T13:17:18.541Z,46.47
2018-05-18T13:19:47.201Z,47.08
2018-05-18T13:22:15.884Z,46.98
2018-05-18T13:24:45.018Z,47.80
2018-05-18T13:27:14.604Z,48.13
2018-05-18T13:29:43.250Z,46.72
2018-05-18T13:32:11.883Z,47.47
2018-05-18T13:34:40.491Z,46.49
2018-05-18T13:37:08.920Z,46.74
2018-05-18T13:39:37.248Z,47.43
2018-05-18T13:42:05.629Z,47.06
2018-05-18T13:44:33.956Z,47.29
2018-05-18T13:47:02.328Z,47.42
2018-05-18T13:49:30.669Z,47.04
2018-05-18T13:51:59.019Z,46.86
2018-05-18T13:54:27.363Z,47.19
2018-05-18T13:56:55.716Z,47.32
2018-05-18T13:59:24.076Z,46.60
2018-05-18T14:01:52.421Z,46.16
2018-05-18T14:04:20.752Z,46.91
2018-05-18T14:06:49.106Z,46.53
2018-05-18T14:09:17.441Z,47.11
2018-05-18T14:11:45.793Z,47.30
2018-05-18T14:14:14.132Z,46.10
2018-05-18T14:16:42.479Z,45.86
2018-05-18T14:19:10.829Z,44.88
2018-05-18T14:21:39.181Z,45.40
2018-05-18T14:24:07.516Z,44.80
2018-05-18T14:26:36.681Z,44.53
2018-05-18T14:29:05.021Z,44.51
2018-05-18T14:31:34.040Z,44.40
2018-05-18T14:34:02.409Z,44.68
2018-05-18T14:36:30.769Z,45.60
2018-05-18T14:38:59.520Z,44.38
2018-05-18T14:41:27.873Z,42.29
2018-05-18T14:43:56.286Z,42.18
2018-05-18T14:46:24.668Z,41.54
2018-05-18T14:48:53.621Z,43.72
2018-05-18T14:51:22.532Z,43.63
2018-05-18T14:53:50.900Z,42.96
2018-05-18T14:56:19.296Z,41.83
2018-05-18T14:58:47.624Z,42.60
2018-05-18T15:01:16.047Z,42.81
2018-05-18T15:03:44.380Z,43.13
2018-05-18T15:06:12.712Z,42.92
2018-05-18T15:08:41.069Z,42.87
2018-05-18T15:11:09.409Z,43.18
2018-05-18T15:13:37.779Z,43.61
2018-05-18T15:16:06.104Z,44.34
2018-05-18T15:18:34.459Z,43.62
2018-05-18T15:21:02.798Z,43.92
2018-05-18T15:23:31.187Z,43.37
2018-05-18T15:25:59.542Z,43.10
2018-05-18T15:28:27.891Z,44.33
2018-05-18T15:30:56.220Z,43.32
2018-05-18T15:33:24.569Z,43.79
2018-05-18T15:35:53.238Z,43.17
2018-05-18T15:38:21.673Z,42.20
2018-05-18T15:40:50.002Z,44.05
2018-05-18T15:43:18.349Z,43.37
2018-05-18T15:45:46.681Z,44.08
2018-05-18T15:48:15.039Z,43.81
2018-05-18T15:50:43.365Z,44.43
2018-05-18T15:53:11.712Z,45.22
2018-05-18T15:55:40.050Z,45.37
2018-05-18T15:58:08.429Z,45.19
2018-05-18T16:00:36.766Z,45.90
2018-05-18T16:03:05.126Z,45.36
2018-05-18T16:05:33.457Z,45.12
2018-05-18T16:08:01.812Z,44.15
2018-05-18T16:10:30.142Z,44.05
2018-05-18T16:12:58.528Z,44.93
2018-05-18T16:15:26.823Z,44.25
2018-05-18T16:17:55.182Z,44.84
2018-05-18T16:20:23.514Z,45.06
2018-05-18T16:22:51.865Z,43.78
2018-05-18T16:25:20.806Z,43.55
2018-05-18T16:27:49.171Z,44.55
2018-05-18T16:30:17.488Z,44.67
2018-05-18T16:32:45.852Z,44.15
2018-05-18T16:35:14.177Z,44.51
2018-05-18T16:37:42.533Z,44.99
2018-05-18T16:40:10.954Z,45.65
2018-05-18T16:42:39.212Z,45.29
2018-05-18T16:45:07.540Z,45.35
2018-05-18T16:47:35.884Z,44.50
2018-05-18T16:50:04.212Z,43.86
2018-05-18T16:52:32.569Z,43.79
2018-05-18T16:55:00.900Z,44.85
2018-05-18T16:57:29.257Z,44.95
2018-05-18T16:59:57.591Z,45.10
2018-05-18T17:02:25.916Z,45.31
2018-05-18T17:04:54.264Z,45.77
2018-05-18T17:07:22.597Z,46.76
2018-05-18T17:09:50.948Z,46.18
2018-05-18T17:12:19.279Z,44.93
2018-05-18T17:14:47.632Z,45.08
2018-05-18T17:17:15.955Z,46.21
2018-05-18T17:19:44.328Z,45.12
2018-05-18T17:22:12.637Z,45.59
2018-05-18T17:24:40.993Z,44.79
2018-05-18T17:27:09.322Z,45.20
2018-05-18T17:29:37.672Z,45.83
2018-05-18T17:32:05.996Z,45.42
2018-05-18T17:34:34.340Z,45.29
2018-05-18T17:37:02.669Z,45.97
2018-05-18T17:39:31.024Z,46.03
2018-05-18T17:41:59.360Z,46.32
2018-05-18T17:44:27.709Z,46.02
2018-05-18T17:46:56.037Z,45.67
2018-05-18T17:49:24.384Z,45.79
2018-05-18T17:51:52.715Z,45.95
2018-05-18T17:54:21.111Z,46.49
2018-05-18T17:56:49.392Z,46.82
2018-05-18T17:59:17.748Z,45.93
2018-05-18T18:01:46.072Z,46.06
2018-05-18T18:04:14.420Z,46.47
2018-05-18T18:06:42.753Z,46.69
2018-05-18T18:09:11.101Z,46.75
2018-05-18T18:11:39.428Z,46.41
2018-05-18T18:14:07.823Z,46.49
2018-05-18T18:16:36.644Z,46.41
2018-05-18T18:19:04.997Z,46.40
2018-05-18T18:21:33.333Z,46.88
2018-05-18T18:24:01.684Z,47.10
2018-05-18T18:26:30.012Z,47.37
2018-05-18T18:28:58.371Z,47.61
2018-05-18T18:31:26.701Z,47.05
2018-05-18T18:33:55.052Z,47.51
2018-05-18T18:36:23.400Z,48.10
2018-05-18T18:38:51.745Z,48.29
2018-05-18T18:41:20.354Z,48.43
2018-05-18T18:43:48.704Z,48.77
2018-05-18T18:46:17.032Z,48.97
2018-05-18T18:48:45.384Z,48.79
2018-05-18T18:51:13.755Z,49.00
2018-05-18T18:53:42.143Z,48.68
2018-05-18T18:56:10.471Z,48.57
2018-05-18T18:58:39.014Z,48.52
2018-05-18T19:01:07.340Z,47.99
2018-05-18T19:03:35.722Z,48.53
2018-05-18T19:06:04.071Z,48.92
2018-05-18T19:08:32.487Z,49.06
2018-05-18T19:11:00.778Z,49.54
2018-05-18T19:13:29.106Z,49.75
2018-05-18T19:15:57.469Z,49.83
2018-05-18T19:18:25.801Z,49.65
2018-05-18T19:20:54.165Z,49.77
2018-05-18T19:23:22.493Z,49.85
2018-05-18T19:25:50.844Z,50.13
2018-05-18T19:28:19.176Z,50.20
2018-05-18T19:30:47.526Z,50.25
2018-05-18T19:33:15.860Z,50.55
2018-05-18T19:35:44.217Z,50.81
2018-05-18T19:38:13.401Z,51.19
2018-05-18T19:40:41.758Z,51.67
2018-05-18T19:43:10.093Z,52.17
2018-05-18T19:45:38.444Z,52.12
2018-05-18T19:48:06.773Z,52.70
2018-05-18T19:50:35.124Z,52.85
2018-05-18T19:53:03.447Z,52.93
2018-05-18T19:55:31.796Z,53.36
2018-05-18T19:58:00.134Z,53.47
2018-05-18T20:00:28.475Z,53.69
2018-05-18T20:02:56.804Z,54.23
2018-05-18T20:05:25.161Z,54.59
2018-05-18T20:07:53.488Z,54.91
2018-05-18T20:10:21.848Z,54.98
2018-05-18T20:12:51.133Z,55.30
2018-05-18T20:15:19.477Z,55.35
2018-05-18T20:17:47.815Z,55.77
2018-05-18T20:20:16.169Z,56.13
2018-05-18T20:22:44.497Z,56.21
2018-05-18T20:25:12.841Z,56.45
2018-05-18T20:27:41.167Z,56.68
2018-05-18T20:30:09.516Z,56.97
2018-05-18T20:32:37.843Z,56.84
2018-05-18T20:35:06.193Z,57.14
2018-05-18T20:37:34.515Z,57.24
2018-05-18T20:40:02.870Z,57.59
2018-05-18T20:42:31.194Z,57.91
2018-05-18T20:44:59.559Z,57.66
2018-05-18T20:47:27.876Z,57.68
2018-05-18T20:49:56.225Z,57.97
2018-05-18T20:52:24.553Z,58.19
2018-05-18T20:54:52.925Z,57.80
2018-05-18T20:57:21.248Z,58.06
2018-05-18T20:59:49.600Z,58.22
2018-05-18T21:02:17.926Z,59.16
2018-05-18T21:04:46.253Z,59.12
2018-05-18T21:07:14.600Z,59.59
2018-05-18T21:09:42.938Z,59.63
2018-05-18T21:12:11.280Z,59.52
2018-05-18T21:14:40.533Z,59.05
2018-05-18T21:17:08.879Z,58.82
2018-05-18T21:19:37.216Z,59.06
2018-05-18T21:22:05.573Z,59.43
2018-05-18T21:24:33.900Z,59.59
2018-05-18T21:27:02.252Z,59.72
2018-05-18T21:29:30.581Z,60.26
2018-05-18T21:31:58.932Z,60.38
2018-05-18T21:34:27.351Z,60.57
2018-05-18T21:36:55.695Z,60.14
2018-05-18T21:39:24.020Z,60.20
2018-05-18T21:41:52.368Z,60.38
2018-05-18T21:44:20.700Z,59.73
2018-05-18T21:46:49.045Z,59.84
2018-05-18T21:49:17.360Z,59.77
2018-05-18T21:51:45.709Z,59.03
2018-05-18T21:54:14.032Z,58.98
2018-05-18T21:56:42.380Z,58.70
2018-05-18T21:59:10.700Z,58.37
2018-05-18T22:01:39.044Z,58.50
2018-05-18T22:04:07.374Z,58.30
2018-05-18T22:06:35.738Z,58.21
2018-05-18T22:09:06.676Z,58.35
2018-05-18T22:11:35.021Z,58.51
2018-05-18T22:14:03.355Z,58.73
2018-05-18T22:16:31.692Z,59.04
2018-05-18T22:19:00.022Z,59.36
2018-05-18T22:21:28.367Z,58.92
2018-05-18T22:23:56.687Z,59.05
2018-05-18T22:26:25.036Z,59.23
2018-05-18T22:28:53.360Z,59.08
2018-05-18T22:31:21.705Z,59.39
2018-05-18T22:33:50.028Z,59.29
2018-05-18T22:36:18.380Z,59.04
2018-05-18T22:38:46.704Z,58.94
2018-05-18T22:41:15.049Z,59.14
2018-05-18T22:43:43.373Z,59.59
2018-05-18T22:46:11.721Z,59.72
2018-05-18T22:48:40.041Z,59.76
2018-05-18T22:51:08.388Z,59.79
2018-05-18T22:53:36.712Z,59.98
2018-05-18T22:56:05.056Z,60.10
2018-05-18T22:58:33.383Z,60.16
2018-05-18T23:01:01.728Z,60.45
2018-05-18T23:03:30.044Z,60.41
2018-05-18T23:05:58.414Z,60.57
2018-05-18T23:08:26.737Z,60.68
2018-05-18T23:10:55.060Z,60.78
2018-05-18T23:13:23.403Z,60.65
2018-05-18T23:15:51.724Z,60.64
2018-05-18T23:18:20.068Z,60.83
2018-05-18T23:20:48.394Z,60.73
2018-05-18T23:23:16.736Z,60.90
2018-05-18T23:25:45.117Z,61.07
2018-05-18T23:28:13.416Z,61.23
2018-05-18T23:30:41.741Z,61.19
2018-05-18T23:33:10.085Z,61.20
2018-05-18T23:35:38.414Z,61.21
2018-05-18T23:38:06.761Z,61.16
2018-05-18T23:40:35.085Z,60.98
2018-05-18T23:43:03.428Z,61.09
2018-05-18T23:45:31.753Z,61.41
2018-05-18T23:48:00.100Z,61.40
2018-05-18T23:50:28.425Z,61.68
2018-05-18T23:52:56.796Z,61.73
2018-05-18T23:55:25.099Z,61.60
2018-05-18T23:57:53.447Z,61.65
